Time;durP1;ratioP1;P1;durP2;ratioP2;P2;SDS_P1;SDS_P2;PMS_P1;PMS_P2;Temp;Humidity;BMP_temperature;BMP_pressure;BME280_temperature;BME280_humidity;BME280_pressure;Samples;Min_cycle;Max_cycle;Signal;HPM_P1;HPM_P2
2022/11/24 00:01:48;;;;;;;10.73;2.50;;;;;;;-148.88;100.00;75570.03;5013887;28;20519;-76
2022/11/24 00:04:13;;;;;;;7.22;2.63;;;;;;;-148.88;100.00;75570.03;5014071;28;20069;-76
2022/11/24 00:06:38;;;;;;;7.93;2.22;;;;;;;-148.88;100.00;75576.13;5014383;28;20109;-76
2022/11/24 00:09:05;;;;;;;8.43;2.50;;;;;;;-148.88;100.00;75570.03;5013729;28;20113;-76
2022/11/24 00:11:34;;;;;;;7.20;2.40;;;;;;;-148.88;100.00;75574.13;5012533;28;20030;-76
2022/11/24 00:14:00;;;;;;;5.85;2.25;;;;;;;-148.88;100.00;75566.00;5013869;28;20026;-76
2022/11/24 00:16:31;;;;;;;8.50;2.67;;;;;;;-148.88;100.00;75566.00;5013760;28;20029;-76
2022/11/24 00:18:58;;;;;;;8.50;2.22;;;;;;;-148.88;100.00;75570.03;5013887;28;20026;-76
2022/11/24 00:21:25;;;;;;;6.20;2.28;;;;;;;-148.88;100.00;75566.00;5014082;28;20030;-76
2022/11/24 00:23:52;;;;;;;9.48;2.35;;;;;;;-148.88;100.00;75568.03;5013562;28;20033;-76
2022/11/24 00:26:18;;;;;;;10.23;2.63;;;;;;;-148.88;100.00;75574.13;5013523;28;20464;-76
2022/11/24 00:28:45;;;;;;;10.13;2.70;;;;;;;-148.88;100.00;75578.19;5013400;28;20037;-76
2022/11/24 00:31:25;;;;;;;9.18;2.50;;;;;;;-148.88;100.00;75574.13;5012176;28;20026;-76
2022/11/24 00:33:52;;;;;;;8.77;2.30;;;;;;;-148.88;100.00;75570.03;5011186;28;20049;-75
2022/11/24 00:36:19;;;;;;;7.55;2.60;;;;;;;-148.88;100.00;75580.22;5013396;28;20022;-76
2022/11/24 00:38:45;;;;;;;7.20;2.78;;;;;;;-148.88;100.00;75578.19;5013363;28;20022;-76
2022/11/24 00:41:11;;;;;;;8.60;2.50;;;;;;;-148.88;100.00;75580.22;5013314;28;20044;-76
2022/11/24 00:43:36;;;;;;;8.55;2.63;;;;;;;-148.88;100.00;75586.31;5013417;28;20400;-76
2022/11/24 00:46:01;;;;;;;5.68;2.42;;;;;;;-148.88;100.00;75590.34;5013289;28;20085;-76
2022/11/24 00:48:27;;;;;;;9.55;2.25;;;;;;;-148.88;100.00;75594.44;5013216;28;20029;-76
2022/11/24 00:51:13;;;;;;;10.25;2.92;;;;;;;-148.88;100.00;75594.44;5013393;28;20041;-76
2022/11/24 00:53:39;;;;;;;9.80;2.30;;;;;;;-148.88;100.00;75594.44;5011949;28;20500;-76
2022/11/24 00:56:05;;;;;;;14.60;3.55;;;;;;;-148.88;100.00;75602.53;5013175;28;20449;-76
2022/11/24 00:58:31;;;;;;;12.70;3.03;;;;;;;-148.88;100.00;75604.56;5013215;28;20025;-76
2022/11/24 01:01:02;;;;;;;11.95;2.67;;;;;;;-148.88;100.00;75598.47;5013110;28;20033;-76
2022/11/24 01:03:27;;;;;;;8.90;2.53;;;;;;;-148.88;100.00;75606.59;5013237;28;20053;-76
2022/11/24 01:05:52;;;;;;;10.68;2.40;;;;;;;-148.88;100.00;75598.47;5013717;28;20112;-76
2022/11/24 01:08:18;;;;;;;9.82;2.60;;;;;;;-148.88;100.00;75606.59;5011669;28;20068;-76
2022/11/24 01:10:43;;;;;;;8.50;2.60;;;;;;;-148.88;100.00;75610.66;5013040;28;20113;-76
2022/11/24 01:13:08;;;;;;;14.57;2.63;;;;;;;-148.88;100.00;75624.88;5011768;28;20109;-76
2022/11/24 01:15:35;;;;;;;12.95;2.88;;;;;;;-148.88;100.00;75622.84;5013045;28;20388;-76
2022/11/24 01:18:00;;;;;;;13.60;2.97;;;;;;;-148.88;100.00;75628.94;5011661;28;20014;-76
2022/11/24 01:20:26;;;;;;;7.07;2.10;;;;;;;-148.88;100.00;75630.97;5011761;28;20499;-76
2022/11/24 01:22:53;;;;;;;15.60;3.67;;;;;;;-148.88;100.00;75635.03;5011662;28;20418;-76
2022/11/24 01:25:19;;;;;;;16.90;2.22;;;;;;;-148.88;100.00;75630.97;5042603;23;20037;-86
2022/11/24 01:27:44;;;;;;;12.50;2.40;;;;;;;-148.88;100.00;75630.97;5052937;28;20028;-86
2022/11/24 01:30:10;;;;;;;9.15;2.45;;;;;;;-148.88;100.00;75633.00;5052674;28;20061;-86
2022/11/24 01:32:36;;;;;;;14.18;2.70;;;;;;;-148.88;100.00;75639.09;5052331;28;20032;-86
2022/11/24 01:35:03;;;;;;;9.63;2.40;;;;;;;-148.88;100.00;75635.03;5042552;28;20025;-85
2022/11/24 01:37:28;;;;;;;12.23;2.63;;;;;;;-148.88;100.00;75649.25;5048070;22;20057;-90
2022/11/24 01:39:53;;;;;;;5.88;2.10;;;;;;;-148.88;100.00;75647.22;5011179;28;20022;-89
2022/11/24 01:42:19;;;;;;;8.27;2.30;;;;;;;-148.88;100.00;75653.31;5012482;28;20037;-89
2022/11/24 01:44:44;;;;;;;14.77;2.42;;;;;;;-148.88;100.00;75651.28;5012243;28;20040;-88
2022/11/24 01:47:31;;;;;;;11.38;2.90;;;;;;;-148.88;100.00;75667.53;5015879;28;20033;-89
2022/11/24 01:50:00;;;;;;;10.02;2.40;;;;;;;-148.88;100.00;75663.47;5015029;28;20495;-89
2022/11/24 01:52:35;;;;;;;20.80;2.88;;;;;;;-148.88;100.00;75675.66;5015868;28;20026;-89
2022/11/24 01:55:15;;;;;;;12.13;2.45;;;;;;;-148.88;100.00;75683.78;5014621;28;20486;-89
2022/11/24 01:57:46;;;;;;;9.65;2.60;;;;;;;-148.88;100.00;75687.84;5015029;28;20025;-89
2022/11/24 02:00:13;;;;;;;10.23;2.72;;;;;;;-148.88;100.00;75691.91;5014617;28;20388;-89
2022/11/24 02:02:41;;;;;;;13.52;3.47;;;;;;;-148.88;100.00;75687.84;5017406;28;20037;-88
2022/11/24 02:05:22;;;;;;;12.05;2.67;;;;;;;-148.88;100.00;75704.09;5016071;28;20029;-90
2022/11/24 02:07:49;;;;;;;8.10;2.30;;;;;;;-148.88;100.00;75704.09;5014891;28;20484;-88
2022/11/24 02:10:15;;;;;;;6.90;2.40;;;;;;;-148.88;100.00;75710.19;5014475;28;20030;-89
2022/11/24 02:12:46;;;;;;;12.30;2.63;;;;;;;-148.88;100.00;75714.25;5014309;28;20026;-88
2022/11/24 02:15:14;;;;;;;13.00;2.50;;;;;;;-148.88;100.00;75728.47;5015632;28;20022;-89
2022/11/24 02:17:39;;;;;;;8.32;2.55;;;;;;;-148.88;100.00;75724.41;5015709;28;20041;-89
2022/11/24 02:20:08;;;;;;;11.55;2.88;;;;;;;-148.88;100.00;75736.59;5015926;28;20025;-89
2022/11/24 02:22:58;;;;;;;11.98;2.47;;;;;;;-148.88;100.00;75744.72;5016305;28;20030;-89
2022/11/24 02:25:47;;;;;;;12.60;3.25;;;;;;;-148.88;100.00;75744.72;5016580;28;20033;-88
2022/11/24 02:28:16;;;;;;;13.75;2.97;;;;;;;-148.88;100.00;75744.72;5014344;28;20101;-88
2022/11/24 02:30:41;;;;;;;11.63;2.60;;;;;;;-148.88;100.00;75744.72;5015445;28;20026;-88
2022/11/24 02:33:07;;;;;;;15.00;3.50;;;;;;;-148.88;100.00;75756.91;5016390;28;20104;-88
2022/11/24 02:35:32;;;;;;;7.05;2.65;;;;;;;-148.88;100.00;75752.84;5030011;28;20468;-87
2022/11/24 02:37:58;;;;;;;13.18;3.08;;;;;;;-148.88;100.00;75748.78;5015417;28;20030;-88
2022/11/24 02:40:26;;;;;;;18.17;3.45;;;;;;;-148.88;100.00;75760.97;5017259;28;20056;-88
2022/11/24 02:42:57;;;;;;;15.57;3.30;;;;;;;-148.88;100.00;75765.03;5017056;28;20029;-88
2022/11/24 02:45:25;;;;;;;12.27;2.83;;;;;;;-148.88;100.00;75765.03;5015792;28;20425;-88
2022/11/24 02:47:50;;;;;;;12.02;3.03;;;;;;;-148.88;100.00;75777.22;5016437;28;20101;-88
2022/11/24 02:50:15;;;;;;;14.43;3.05;;;;;;;-148.88;100.00;75781.28;5015104;28;20457;-88
2022/11/24 02:52:41;;;;;;;13.80;2.97;;;;;;;-148.88;100.00;75781.28;5014928;28;20033;-88
2022/11/24 02:55:06;;;;;;;15.18;3.15;;;;;;;-148.88;100.00;75789.41;5013857;28;20034;-88
2022/11/24 02:57:32;;;;;;;12.80;2.38;;;;;;;-148.88;100.00;75787.38;5014370;28;20022;-88
2022/11/24 02:59:57;;;;;;;10.18;2.58;;;;;;;-148.88;100.00;75789.41;5014486;28;20034;-88
2022/11/24 03:02:24;;;;;;;10.57;3.00;;;;;;;-148.88;100.00;75795.50;5015741;28;20060;-88
2022/11/24 03:04:49;;;;;;;11.18;2.58;;;;;;;-148.88;100.00;75801.59;5015257;28;20097;-88
2022/11/24 03:07:15;;;;;;;16.27;3.67;;;;;;;-148.88;100.00;75805.66;5014964;28;20431;-88
2022/11/24 03:09:40;;;;;;;16.52;3.30;;;;;;;-148.88;100.00;75801.59;5015562;28;20026;-87
2022/11/24 03:12:06;;;;;;;11.52;2.53;;;;;;;-148.88;100.00;75797.53;5014068;28;20022;-88
2022/11/24 03:14:31;;;;;;;9.30;2.15;;;;;;;-148.88;100.00;75781.28;5015331;28;20022;-89
2022/11/24 03:16:56;;;;;;;14.73;2.67;;;;;;;-148.88;100.00;75797.53;5015356;28;20075;-88
2022/11/24 03:19:22;;;;;;;11.90;2.80;;;;;;;-148.88;100.00;75777.22;5015416;28;20022;-87
2022/11/24 03:21:47;;;;;;;13.35;2.65;;;;;;;-148.88;100.00;75777.22;5015211;28;20034;-88
2022/11/24 03:24:12;;;;;;;12.25;3.35;;;;;;;-148.88;100.00;75777.22;5016329;28;20168;-90
2022/11/24 03:26:38;;;;;;;11.27;2.25;;;;;;;-148.88;100.00;75771.13;5014871;28;20040;-90
2022/11/24 03:29:03;;;;;;;10.98;2.40;;;;;;;-148.88;100.00;75777.22;5014878;28;20101;-90
2022/11/24 03:31:28;;;;;;;14.48;2.60;;;;;;;-148.88;100.00;75793.47;5015475;28;20037;-90
2022/11/24 03:33:54;;;;;;;11.70;2.75;;;;;;;-148.88;100.00;75793.47;5013513;28;20109;-90
2022/11/24 03:36:19;;;;;;;14.82;3.20;;;;;;;-148.88;100.00;75805.66;5014090;28;20026;-89
2022/11/24 03:38:44;;;;;;;12.15;2.55;;;;;;;-148.88;100.00;75799.56;5013794;28;20157;-86
2022/11/24 03:41:10;;;;;;;12.45;2.65;;;;;;;-148.88;100.00;75805.66;5014883;28;20104;-87
2022/11/24 03:43:35;;;;;;;9.90;3.45;;;;;;;-148.88;100.00;75815.81;5014561;28;20049;-85
2022/11/24 03:46:00;;;;;;;14.10;2.90;;;;;;;-148.88;100.00;75813.78;5014675;28;20080;-88
2022/11/24 03:48:26;;;;;;;12.13;2.60;;;;;;;-148.88;100.00;75801.59;5013501;28;20025;-87
2022/11/24 03:50:59;;;;;;;14.98;2.85;;;;;;;-148.88;100.00;75797.53;5013464;28;20026;-86
2022/11/24 03:53:28;;;;;;;18.63;2.80;;;;;;;-148.88;100.00;75799.56;5014514;28;20400;-87
2022/11/24 03:55:53;;;;;;;13.07;2.50;;;;;;;-148.88;100.00;75801.59;5013326;28;20026;-86
2022/11/24 03:58:19;;;;;;;17.85;3.08;;;;;;;-148.88;100.00;75789.41;5012939;28;20495;-88
2022/11/24 04:00:47;;;;;;;11.18;2.38;;;;;;;-148.88;100.00;75779.25;5013219;28;20029;-86
2022/11/24 04:03:12;;;;;;;9.45;2.22;;;;;;;-148.88;100.00;75777.22;5014483;28;20606;-86
2022/11/24 04:05:43;;;;;;;16.73;2.35;;;;;;;-148.88;100.00;75765.03;5012909;28;20112;-86
2022/11/24 04:08:08;;;;;;;9.38;2.75;;;;;;;-148.88;100.00;75756.91;5013112;28;20033;-87
2022/11/24 04:10:36;;;;;;;22.63;2.78;;;;;;;-148.88;100.00;75744.72;5012976;28;20026;-87
2022/11/24 04:13:03;;;;;;;14.05;3.03;;;;;;;-148.88;100.00;75746.75;5012963;28;20021;-85
2022/11/24 04:15:28;;;;;;;11.02;2.17;;;;;;;-148.88;100.00;75740.66;5013008;28;20021;-87
2022/11/24 04:17:55;;;;;;;13.07;2.33;;;;;;;-148.88;100.00;75734.56;5012892;28;20127;-87
2022/11/24 04:20:20;;;;;;;18.58;3.15;;;;;;;-148.88;100.00;75734.56;5012885;28;20475;-86
2022/11/24 04:22:46;;;;;;;13.50;2.40;;;;;;;-148.88;100.00;75726.44;5012640;28;20040;-86
2022/11/24 04:25:11;;;;;;;13.55;3.03;;;;;;;-148.88;100.00;75724.41;5014262;28;20108;-86
2022/11/24 04:27:37;;;;;;;10.18;2.47;;;;;;;-148.88;100.00;75722.38;5013851;28;20034;-83
2022/11/24 04:30:05;;;;;;;12.88;2.45;;;;;;;-148.88;100.00;75728.47;5012588;28;20037;-86
2022/11/24 04:32:32;;;;;;;14.23;2.40;;;;;;;-148.88;100.00;75736.59;5013881;28;20026;-83
2022/11/24 04:34:58;;;;;;;17.05;2.40;;;;;;;-148.88;100.00;75734.56;5014216;28;20104;-84
2022/11/24 04:37:23;;;;;;;10.85;2.42;;;;;;;-148.88;100.00;75736.59;5016893;28;20049;-86
2022/11/24 04:39:53;;;;;;;10.00;2.50;;;;;;;-148.88;100.00;75724.41;5017044;28;20034;-86
2022/11/24 04:42:19;;;;;;;14.48;2.65;;;;;;;-148.88;100.00;75728.47;5013960;28;20022;-84
2022/11/24 04:44:44;;;;;;;7.88;2.33;;;;;;;-148.88;100.00;75724.41;5018948;28;20068;-85
2022/11/24 04:47:21;;;;;;;10.43;2.10;;;;;;;-148.88;100.00;75736.59;5022886;28;20036;-86
2022/11/24 04:49:50;;;;;;;12.13;2.38;;;;;;;-148.88;100.00;75728.47;5021897;28;20081;-86
2022/11/24 04:52:17;;;;;;;14.27;2.47;;;;;;;-148.88;100.00;75724.41;5015614;28;20033;-83
2022/11/24 04:54:42;;;;;;;18.48;3.70;;;;;;;-148.88;100.00;75720.34;5012685;28;20025;-82
2022/11/24 04:57:15;;;;;;;9.60;1.95;;;;;;;-148.88;100.00;75724.41;5013157;28;20076;-84
2022/11/24 04:59:40;;;;;;;7.93;2.17;;;;;;;-148.88;100.00;75722.38;5012418;28;20037;-84
2022/11/24 05:02:07;;;;;;;14.48;2.95;;;;;;;-148.88;100.00;75740.66;5013353;28;20485;-84
2022/11/24 05:04:32;;;;;;;11.98;2.10;;;;;;;-148.88;100.00;75750.81;5013443;28;20042;-83
2022/11/24 05:06:57;;;;;;;12.93;2.33;;;;;;;-148.88;100.00;75754.88;5013588;28;20039;-84
2022/11/24 05:09:25;;;;;;;13.00;2.55;;;;;;;-148.88;100.00;75765.03;5012441;28;20093;-83
2022/11/24 05:11:51;;;;;;;7.97;2.25;;;;;;;-148.88;100.00;75760.97;5012029;28;20030;-84
2022/11/24 05:14:16;;;;;;;11.07;2.20;;;;;;;-148.88;100.00;75756.91;5012400;28;20045;-83
2022/11/24 05:16:42;;;;;;;11.65;2.30;;;;;;;-148.88;100.00;75777.22;5012268;28;20116;-84
2022/11/24 05:19:07;;;;;;;13.95;2.50;;;;;;;-148.88;100.00;75777.22;5013277;28;20429;-83
2022/11/24 05:21:33;;;;;;;13.00;2.75;;;;;;;-148.88;100.00;75777.22;5015021;28;20032;-83
2022/11/24 05:23:58;;;;;;;14.82;2.22;;;;;;;-148.88;100.00;75781.28;5015841;28;20495;-83
2022/11/24 05:26:24;;;;;;;9.50;2.33;;;;;;;-148.88;100.00;75789.41;5017479;28;20105;-84
2022/11/24 05:28:50;;;;;;;9.60;1.95;;;;;;;-148.88;100.00;75787.38;5017157;28;20026;-84
2022/11/24 05:31:15;;;;;;;11.40;2.55;;;;;;;-148.88;100.00;75781.28;5016173;28;20079;-85
2022/11/24 05:33:42;;;;;;;19.15;2.97;;;;;;;-148.88;100.00;75785.34;5016433;28;20167;-84
2022/11/24 05:36:51;;;;;;;12.75;1.98;;;;;;;-148.88;100.00;75781.28;5015618;28;20045;-83
2022/11/24 05:38:54;;;;;;;12.50;2.30;;;;;;;-148.88;100.00;75777.22;5016670;28;20117;-83
2022/11/24 05:41:19;;;;;;;15.25;2.92;;;;;;;-148.88;100.00;75767.06;5017049;28;20131;-85
2022/11/24 05:43:44;;;;;;;15.70;2.90;;;;;;;-148.88;100.00;75767.06;5021229;28;20080;-86
2022/11/24 05:46:10;;;;;;;22.52;2.90;;;;;;;-148.88;100.00;75760.97;5018612;28;20026;-84
2022/11/24 05:48:35;;;;;;;11.73;2.33;;;;;;;-148.88;100.00;75750.81;5015891;28;20026;-84
2022/11/24 05:51:01;;;;;;;12.57;2.28;;;;;;;-148.88;100.00;75744.72;5017329;28;20041;-83
2022/11/24 05:53:26;;;;;;;9.52;2.53;;;;;;;-148.88;100.00;75740.66;5015833;28;20034;-83
2022/11/24 05:55:52;;;;;;;19.38;3.10;;;;;;;-148.88;100.00;75732.53;5016861;28;20033;-83
2022/11/24 05:58:17;;;;;;;16.48;3.33;;;;;;;-148.88;100.00;75732.53;5016807;28;20361;-84
2022/11/24 06:00:42;;;;;;;12.48;2.47;;;;;;;-148.88;100.00;75726.44;5015723;28;20087;-83
2022/11/24 06:03:10;;;;;;;13.13;2.30;;;;;;;-148.88;100.00;75728.47;5016071;28;20022;-85
2022/11/24 06:05:35;;;;;;;13.25;2.97;;;;;;;-148.88;100.00;75732.53;5016891;28;20030;-85
2022/11/24 06:08:01;;;;;;;14.63;2.22;;;;;;;-148.88;100.00;75734.56;5016051;28;20033;-85
2022/11/24 06:10:27;;;;;;;11.10;2.95;;;;;;;-148.88;100.00;75720.34;5015312;28;20021;-84
2022/11/24 06:12:52;;;;;;;16.42;3.00;;;;;;;-148.88;100.00;75732.53;5015697;28;20033;-84
2022/11/24 06:15:18;;;;;;;14.23;2.45;;;;;;;-148.88;100.00;75734.56;5017323;28;20029;-86
2022/11/24 06:17:50;;;;;;;13.07;2.53;;;;;;;-148.88;100.00;75732.53;5015274;28;20018;-85
2022/11/24 06:20:16;;;;;;;10.50;1.90;;;;;;;-148.88;100.00;75736.59;5016883;28;20030;-83
2022/11/24 06:22:41;;;;;;;16.42;2.58;;;;;;;-148.88;100.00;75736.59;5015436;28;20025;-85
2022/11/24 06:25:08;;;;;;;15.27;2.40;;;;;;;-148.88;100.00;75736.59;5015615;28;20093;-84
2022/11/24 06:27:33;;;;;;;14.65;2.55;;;;;;;-148.88;100.00;75732.53;5015915;28;20026;-86
2022/11/24 06:29:59;;;;;;;20.48;3.25;;;;;;;-148.88;100.00;75736.59;5022574;28;20026;-86
2022/11/24 06:32:25;;;;;;;15.15;2.88;;;;;;;-148.88;100.00;75736.59;5020763;28;20022;-87
2022/11/24 06:34:50;;;;;;;16.08;2.50;;;;;;;-148.88;100.00;75724.41;5019536;28;20071;-88
2022/11/24 06:37:15;;;;;;;13.10;2.35;;;;;;;-148.88;100.00;75724.41;5018019;28;20042;-88
2022/11/24 06:39:41;;;;;;;17.17;2.90;;;;;;;-148.88;100.00;75724.41;5017843;28;20053;-87
2022/11/24 06:42:06;;;;;;;12.68;2.95;;;;;;;-148.88;100.00;75728.47;5018821;28;20021;-85
2022/11/24 06:44:32;;;;;;;20.05;6.35;;;;;;;-148.88;100.00;75736.59;5017834;28;20032;-85
2022/11/24 06:46:57;;;;;;;18.45;4.75;;;;;;;-148.88;100.00;75740.66;5014941;28;20043;-88
2022/11/24 06:49:22;;;;;;;18.27;5.03;;;;;;;-148.88;100.00;75750.81;5018048;28;20060;-88
2022/11/24 06:51:48;;;;;;;12.52;2.60;;;;;;;-148.88;100.00;75736.59;5019467;28;20026;-87
2022/11/24 06:54:16;;;;;;;12.70;2.88;;;;;;;-148.88;100.00;75748.78;5020913;28;20036;-86
2022/11/24 06:56:41;;;;;;;11.43;2.63;;;;;;;-148.88;100.00;75752.84;5018719;28;20097;-87
2022/11/24 06:59:16;;;;;;;13.10;2.70;;;;;;;-148.88;100.00;75769.09;5020714;28;20056;-86
2022/11/24 07:01:42;;;;;;;15.13;3.10;;;;;;;-148.88;100.00;75765.03;5019893;28;20025;-86
2022/11/24 07:04:10;;;;;;;13.50;2.25;;;;;;;-148.88;100.00;75771.13;5024957;28;20083;-86
2022/11/24 07:06:35;;;;;;;8.32;2.10;;;;;;;-148.88;100.00;75773.16;5020212;28;20047;-85
2022/11/24 07:09:01;;;;;;;14.90;2.15;;;;;;;-148.88;100.00;75756.91;5015322;28;20029;-86
2022/11/24 07:11:26;;;;;;;12.63;2.70;;;;;;;-148.88;100.00;75760.97;5017617;28;20022;-85
2022/11/24 07:13:52;;;;;;;9.98;2.60;;;;;;;-148.88;100.00;75765.03;5021183;28;20082;-86
2022/11/24 07:16:23;;;;;;;15.20;2.53;;;;;;;-148.88;100.00;75752.84;5020282;28;20049;-86
2022/11/24 07:18:51;;;;;;;12.70;4.05;;;;;;;-148.88;100.00;75746.75;5016389;28;20041;-86
2022/11/24 07:21:19;;;;;;;11.73;2.83;;;;;;;-148.88;100.00;75746.75;5018595;28;20021;-84
2022/11/24 07:23:50;;;;;;;12.05;2.83;;;;;;;-148.88;100.00;75763.00;5018397;28;20037;-86
2022/11/24 07:26:17;;;;;;;18.30;3.10;;;;;;;-148.88;100.00;75767.06;5017915;28;20022;-85
2022/11/24 07:28:43;;;;;;;11.93;2.92;;;;;;;-148.88;100.00;75767.06;5015715;28;20026;-86
2022/11/24 07:31:11;;;;;;;16.33;3.08;;;;;;;-148.88;100.00;75769.09;5015067;28;20021;-84
2022/11/24 07:33:36;;;;;;;10.63;2.65;;;;;;;-148.88;100.00;75779.25;5016193;28;20084;-85
2022/11/24 07:36:04;;;;;;;23.60;3.92;;;;;;;-148.88;100.00;75779.25;5015643;28;20029;-85
2022/11/24 07:38:30;;;;;;;15.45;3.47;;;;;;;-148.88;100.00;75779.25;5018312;28;20057;-84
2022/11/24 07:41:04;;;;;;;12.68;2.90;;;;;;;-148.88;100.00;75791.44;5018807;28;20029;-85
2022/11/24 07:43:31;;;;;;;16.13;3.20;;;;;;;-148.88;100.00;75789.41;5014794;28;20064;-86
2022/11/24 07:45:56;;;;;;;17.48;2.83;;;;;;;-148.88;100.00;75807.69;5019059;28;20026;-86
2022/11/24 07:48:22;;;;;;;15.65;3.38;;;;;;;-148.88;100.00;75811.75;5018458;28;20037;-85
2022/11/24 07:50:47;;;;;;;16.98;3.15;;;;;;;-148.88;100.00;75811.75;5015630;28;20053;-85
2022/11/24 07:53:13;;;;;;;16.45;2.88;;;;;;;-148.88;100.00;75825.97;5014574;28;20045;-85
2022/11/24 07:55:38;;;;;;;13.68;2.92;;;;;;;-148.88;100.00;75825.97;5018118;28;20033;-87
2022/11/24 07:58:04;;;;;;;17.90;3.47;;;;;;;-148.88;100.00;75836.13;5017391;28;20045;-87
2022/11/24 08:00:29;;;;;;;16.13;3.17;;;;;;;-148.88;100.00;75844.25;5021181;28;20010;-85
2022/11/24 08:02:55;;;;;;;17.83;3.50;;;;;;;-148.88;100.00;75842.22;5018069;28;20021;-88
2022/11/24 08:05:20;;;;;;;15.00;3.08;;;;;;;-148.88;100.00;75840.19;5019145;28;20022;-87
2022/11/24 08:07:46;;;;;;;20.83;3.72;;;;;;;-148.88;100.00;75836.13;5021106;28;20022;-85
2022/11/24 08:10:11;;;;;;;18.85;3.95;;;;;;;-148.88;100.00;75832.06;5021790;28;20037;-84
2022/11/24 08:12:36;;;;;;;13.93;2.90;;;;;;;-148.88;100.00;75819.88;5021546;28;20380;-87
2022/11/24 08:15:03;;;;;;;14.38;3.22;;;;;;;-148.88;100.00;75821.91;5022952;28;20026;-86
2022/11/24 08:17:28;;;;;;;18.90;4.20;;;;;;;-148.88;100.00;75819.88;5020750;28;20483;-84
2022/11/24 08:19:54;;;;;;;14.55;3.53;;;;;;;-148.88;100.00;75821.91;5023031;28;20108;-86
2022/11/24 08:22:19;;;;;;;17.27;3.45;;;;;;;-148.88;100.00;75823.94;5022716;28;20033;-87
2022/11/24 08:24:47;;;;;;;12.13;2.97;;;;;;;-148.88;100.00;75825.97;5026623;28;20022;-87
2022/11/24 08:27:14;;;;;;;14.48;3.30;;;;;;;-148.88;100.00;75809.72;5024041;28;20021;-87
2022/11/24 08:29:39;;;;;;;15.05;3.63;;;;;;;-148.88;100.00;75811.75;5022004;28;20054;-85
2022/11/24 08:32:05;;;;;;;18.63;3.47;;;;;;;-148.88;100.00;75815.81;5018414;28;20017;-86
2022/11/24 08:34:30;;;;;;;15.27;4.03;;;;;;;-148.88;100.00;75805.66;5020186;28;20026;-84
2022/11/24 08:36:55;;;;;;;14.10;2.85;;;;;;;-148.88;100.00;75801.59;5019815;28;20437;-86
2022/11/24 08:39:21;;;;;;;14.32;3.03;;;;;;;-148.88;100.00;75801.59;5022909;28;20093;-86
2022/11/24 08:41:46;;;;;;;16.40;2.92;;;;;;;-148.88;100.00;75797.53;5023254;28;20026;-87
2022/11/24 08:44:14;;;;;;;16.50;3.22;;;;;;;-148.88;100.00;75793.47;5021260;28;20064;-86
2022/11/24 08:46:40;;;;;;;16.48;3.58;;;;;;;-148.88;100.00;75789.41;5018464;28;20029;-86
2022/11/24 08:49:06;;;;;;;14.38;3.38;;;;;;;-148.88;100.00;75777.22;5020313;28;20103;-86
2022/11/24 08:51:31;;;;;;;12.20;3.67;;;;;;;-148.88;100.00;75773.16;5016047;28;20032;-87
2022/11/24 08:53:59;;;;;;;15.02;3.08;;;;;;;-148.88;100.00;75769.09;5017668;28;20120;-88
2022/11/24 08:56:26;;;;;;;10.18;3.38;;;;;;;-148.88;100.00;75752.84;5015813;28;20109;-87
2022/11/24 08:58:52;;;;;;;19.35;3.53;;;;;;;-148.88;100.00;75752.84;5020175;28;20041;-87
2022/11/24 09:01:18;;;;;;;14.23;3.85;;;;;;;-148.88;100.00;75752.84;5023621;28;20022;-87
2022/11/24 09:03:45;;;;;;;14.82;3.42;;;;;;;-148.88;100.00;75752.84;5023218;28;20022;-88
2022/11/24 09:06:11;;;;;;;15.10;3.25;;;;;;;-148.88;100.00;75752.84;5016912;28;20033;-87
2022/11/24 09:08:37;;;;;;;10.75;2.95;;;;;;;-148.88;100.00;75744.72;5018408;28;20018;-85
2022/11/24 09:11:05;;;;;;;20.95;3.63;;;;;;;-148.88;100.00;75748.78;5018078;28;20499;-85
2022/11/24 09:16:59;;;;;;;19.50;3.45;;;;;;;-148.88;100.00;75740.66;5698602;23;20064;-86
2022/11/24 09:19:24;;;;;;;10.88;3.60;;;;;;;-148.88;100.00;75742.69;5017754;28;20033;-87
2022/11/24 09:21:50;;;;;;;13.77;3.60;;;;;;;-148.88;100.00;75742.69;5018796;28;20474;-87
2022/11/24 09:24:16;;;;;;;16.08;3.70;;;;;;;-148.88;100.00;75750.81;5020004;28;20057;-87
2022/11/24 09:26:41;;;;;;;19.80;4.40;;;;;;;-148.88;100.00;75760.97;5021537;28;20095;-85
2022/11/24 09:29:06;;;;;;;16.85;3.95;;;;;;;-148.88;100.00;75775.19;5022737;28;20030;-84
2022/11/24 09:31:34;;;;;;;15.40;3.78;;;;;;;-148.88;100.00;75769.09;5019579;28;20056;-88
2022/11/24 09:34:04;;;;;;;18.15;3.47;;;;;;;-148.88;100.00;75767.06;5018517;28;20461;-88
2022/11/24 09:36:30;;;;;;;17.70;4.25;;;;;;;-148.88;100.00;75785.34;5021207;28;20079;-87
2022/11/24 09:38:56;;;;;;;17.00;4.30;;;;;;;-148.88;100.00;75785.34;5018532;28;20471;-83
2022/11/24 09:41:32;;;;;;;21.25;5.40;;;;;;;-148.88;100.00;75791.44;5024029;28;20036;-86
2022/11/24 09:44:10;;;;;;;13.55;3.90;;;;;;;-148.88;100.00;75785.34;5025950;28;20018;-86
2022/11/24 09:46:50;;;;;;;17.88;4.38;;;;;;;-148.88;100.00;75791.44;5024420;28;20026;-87
2022/11/24 09:49:26;;;;;;;20.08;4.97;;;;;;;-148.88;100.00;75791.44;5024771;28;20030;-87
2022/11/24 09:51:53;;;;;;;20.17;5.05;;;;;;;-148.88;100.00;75785.34;5024458;28;20030;-86
2022/11/24 09:54:25;;;;;;;15.52;4.18;;;;;;;-148.88;100.00;75785.34;5019367;28;20021;-87
2022/11/24 09:56:51;;;;;;;16.98;4.53;;;;;;;-148.88;100.00;75787.38;5016737;28;20026;-87
2022/11/24 09:59:20;;;;;;;16.52;4.00;;;;;;;-148.88;100.00;75787.38;5013268;28;20014;-85
2022/11/24 10:01:47;;;;;;;14.20;3.67;;;;;;;-148.88;100.00;75785.34;5013536;28;20456;-83
2022/11/24 10:04:18;;;;;;;17.42;4.45;;;;;;;-148.88;100.00;75781.28;5013463;28;20472;-83
2022/11/24 10:07:12;;;;;;;21.20;4.22;;;;;;;-148.88;100.00;75777.22;5014694;28;20021;-87
2022/11/24 10:10:02;;;;;;;21.02;4.00;;;;;;;-148.88;100.00;75773.16;5017575;28;20025;-87
2022/11/24 10:12:49;;;;;;;14.75;3.90;;;;;;;-148.88;100.00;75773.16;5015530;28;20026;-88
2022/11/24 10:15:33;;;;;;;14.90;3.78;;;;;;;-148.88;100.00;75783.31;5017505;28;20049;-88
2022/11/24 10:18:09;;;;;;;20.98;4.18;;;;;;;-148.88;100.00;75797.53;5022383;28;20030;-86
2022/11/24 10:20:55;;;;;;;15.30;3.92;;;;;;;-148.88;100.00;75801.59;5021975;28;20053;-85
2022/11/24 10:23:34;;;;;;;13.30;4.07;;;;;;;-148.88;100.00;75807.69;5023097;28;20124;-85
2022/11/24 10:26:03;;;;;;;17.90;4.35;;;;;;;-148.88;100.00;75817.84;5022529;28;20022;-84
2022/11/24 10:28:41;;;;;;;17.02;4.65;;;;;;;-148.88;100.00;75830.03;5024167;28;20594;-86
2022/11/24 10:31:22;;;;;;;18.63;5.05;;;;;;;-148.88;100.00;75834.09;5021920;28;20032;-87
2022/11/24 10:33:48;;;;;;;19.92;5.25;;;;;;;-148.88;100.00;75834.09;5020542;28;20112;-88
2022/11/24 10:36:22;;;;;;;17.63;5.00;;;;;;;-148.88;100.00;75846.28;5016224;28;20504;-85
2022/11/24 10:39:02;;;;;;;16.02;6.03;;;;;;;-148.88;100.00;75856.44;5017895;28;20480;-87
2022/11/24 10:41:37;;;;;;;20.02;6.45;;;;;;;-148.88;100.00;75854.41;5016133;28;20499;-87
2022/11/24 10:44:02;;;;;;;13.30;5.10;;;;;;;-148.88;100.00;75856.44;5018399;28;20033;-86
2022/11/24 10:46:27;;;;;;;17.70;5.15;;;;;;;-148.88;100.00;75846.28;5018369;28;20034;-86
2022/11/24 10:49:01;;;;;;;18.27;5.70;;;;;;;-148.88;100.00;75850.34;5017053;28;20029;-85
2022/11/24 10:51:29;;;;;;;9.63;4.68;;;;;;;-148.88;100.00;75858.47;5016452;28;20112;-86
2022/11/24 10:54:00;;;;;;;18.90;5.82;;;;;;;-148.88;100.00;75858.47;5016524;28;20030;-87
2022/11/24 10:56:25;;;;;;;14.90;5.53;;;;;;;-148.88;100.00;75858.47;5017192;28;20021;-86
2022/11/24 10:58:51;;;;;;;17.08;5.30;;;;;;;-148.88;100.00;75858.47;5019712;28;20505;-86
2022/11/24 11:01:16;;;;;;;18.25;5.50;;;;;;;-148.88;100.00;75858.47;5018890;28;20052;-86
2022/11/24 11:03:54;;;;;;;13.60;5.47;;;;;;;-148.88;100.00;75858.47;5018447;28;20030;-87
2022/11/24 11:06:28;;;;;;;15.23;5.30;;;;;;;-148.88;100.00;75876.75;5016390;28;20021;-86
2022/11/24 11:09:16;;;;;;;15.32;6.15;;;;;;;-148.88;100.00;75874.72;5016716;28;20030;-86